sensor_id;sensor_type;location;lat;lon;timestamp;temperature;humidity
54006;DHT22;39919;38.160;-122.260;2022-12-13T00:00:59;12.10;70.00
54006;DHT22;39919;38.160;-122.260;2022-12-13T00:03:27;12.10;69.80
54006;DHT22;39919;38.160;-122.260;2022-12-13T00:05:55;12.00;70.00
54006;DHT22;39919;38.160;-122.260;2022-12-13T00:08:24;12.00;69.60
54006;DHT22;39919;38.160;-122.260;2022-12-13T00:10:57;12.00;70.10
54006;DHT22;39919;38.160;-122.260;2022-12-13T00:13:27;11.90;70.10
54006;DHT22;39919;38.160;-122.260;2022-12-13T00:15:56;11.90;70.40
54006;DHT22;39919;38.160;-122.260;2022-12-13T00:18:24;11.90;69.90
54006;DHT22;39919;38.160;-122.260;2022-12-13T00:20:55;11.80;70.40
54006;DHT22;39919;38.160;-122.260;2022-12-13T00:23:24;11.80;71.30
54006;DHT22;39919;38.160;-122.260;2022-12-13T00:25:52;11.70;71.60
54006;DHT22;39919;38.160;-122.260;2022-12-13T00:28:21;11.70;72.40
54006;DHT22;39919;38.160;-122.260;2022-12-13T00:30:51;11.60;72.10
54006;DHT22;39919;38.160;-122.260;2022-12-13T00:33:23;11.60;72.20
54006;DHT22;39919;38.160;-122.260;2022-12-13T00:35:52;11.50;72.60
54006;DHT22;39919;38.160;-122.260;2022-12-13T00:38:21;11.50;72.90
54006;DHT22;39919;38.160;-122.260;2022-12-13T00:40:49;11.40;73.20
54006;DHT22;39919;38.160;-122.260;2022-12-13T00:43:18;11.30;73.50
54006;DHT22;39919;38.160;-122.260;2022-12-13T00:45:47;11.30;73.90
54006;DHT22;39919;38.160;-122.260;2022-12-13T00:48:17;11.20;74.20
54006;DHT22;39919;38.160;-122.260;2022-12-13T00:50:45;11.20;74.40
54006;DHT22;39919;38.160;-122.260;2022-12-13T00:53:13;11.10;74.50
54006;DHT22;39919;38.160;-122.260;2022-12-13T00:55:42;11.00;74.60
54006;DHT22;39919;38.160;-122.260;2022-12-13T00:58:10;11.00;74.90
54006;DHT22;39919;38.160;-122.260;2022-12-13T01:00:38;10.90;75.30
54006;DHT22;39919;38.160;-122.260;2022-12-13T01:03:07;10.80;75.70
54006;DHT22;39919;38.160;-122.260;2022-12-13T01:05:52;10.80;76.20
54006;DHT22;39919;38.160;-122.260;2022-12-13T01:08:21;10.70;76.70
54006;DHT22;39919;38.160;-122.260;2022-12-13T01:10:49;10.60;77.00
54006;DHT22;39919;38.160;-122.260;2022-12-13T01:13:17;10.50;77.40
54006;DHT22;39919;38.160;-122.260;2022-12-13T01:15:46;10.50;77.50
54006;DHT22;39919;38.160;-122.260;2022-12-13T01:18:14;10.40;77.70
54006;DHT22;39919;38.160;-122.260;2022-12-13T01:20:57;10.30;78.30
54006;DHT22;39919;38.160;-122.260;2022-12-13T01:23:26;10.20;79.00
54006;DHT22;39919;38.160;-122.260;2022-12-13T01:25:54;10.20;79.60
54006;DHT22;39919;38.160;-122.260;2022-12-13T01:28:23;10.10;80.00
54006;DHT22;39919;38.160;-122.260;2022-12-13T01:30:55;10.00;80.50
54006;DHT22;39919;38.160;-122.260;2022-12-13T01:33:23;10.00;80.80
54006;DHT22;39919;38.160;-122.260;2022-12-13T01:35:52;9.90;80.80
54006;DHT22;39919;38.160;-122.260;2022-12-13T01:38:25;9.80;81.80
54006;DHT22;39919;38.160;-122.260;2022-12-13T01:40:53;9.70;82.10
54006;DHT22;39919;38.160;-122.260;2022-12-13T01:43:25;9.60;83.10
54006;DHT22;39919;38.160;-122.260;2022-12-13T01:45:54;9.60;83.90
54006;DHT22;39919;38.160;-122.260;2022-12-13T01:48:26;9.50;84.80
54006;DHT22;39919;38.160;-122.260;2022-12-13T01:51:07;9.40;85.30
54006;DHT22;39919;38.160;-122.260;2022-12-13T01:53:39;9.30;86.10
54006;DHT22;39919;38.160;-122.260;2022-12-13T01:56:10;9.30;87.00
54006;DHT22;39919;38.160;-122.260;2022-12-13T01:58:41;9.30;87.70
54006;DHT22;39919;38.160;-122.260;2022-12-13T02:01:10;9.20;88.70
54006;DHT22;39919;38.160;-122.260;2022-12-13T02:03:39;9.20;89.70
54006;DHT22;39919;38.160;-122.260;2022-12-13T02:06:11;9.10;89.80
54006;DHT22;39919;38.160;-122.260;2022-12-13T02:08:45;9.00;90.00
54006;DHT22;39919;38.160;-122.260;2022-12-13T02:11:13;9.00;90.30
54006;DHT22;39919;38.160;-122.260;2022-12-13T02:13:42;9.00;90.50
54006;DHT22;39919;38.160;-122.260;2022-12-13T02:16:13;8.90;90.80
54006;DHT22;39919;38.160;-122.260;2022-12-13T02:18:50;8.80;91.00
54006;DHT22;39919;38.160;-122.260;2022-12-13T02:21:30;8.80;90.90
54006;DHT22;39919;38.160;-122.260;2022-12-13T02:24:14;8.70;91.50
54006;DHT22;39919;38.160;-122.260;2022-12-13T02:27:03;8.70;91.20
54006;DHT22;39919;38.160;-122.260;2022-12-13T03:19:16;7.80;93.50
54006;DHT22;39919;38.160;-122.260;2022-12-13T03:21:45;7.70;93.70
54006;DHT22;39919;38.160;-122.260;2022-12-13T03:24:15;7.70;94.20
54006;DHT22;39919;38.160;-122.260;2022-12-13T03:26:43;7.60;94.20
54006;DHT22;39919;38.160;-122.260;2022-12-13T03:29:12;7.60;94.30
54006;DHT22;39919;38.160;-122.260;2022-12-13T03:31:40;7.50;94.60
54006;DHT22;39919;38.160;-122.260;2022-12-13T03:34:08;7.50;94.40
54006;DHT22;39919;38.160;-122.260;2022-12-13T03:36:38;7.40;94.80
54006;DHT22;39919;38.160;-122.260;2022-12-13T03:39:07;7.40;94.80
54006;DHT22;39919;38.160;-122.260;2022-12-13T04:26:16;6.80;97.50
54006;DHT22;39919;38.160;-122.260;2022-12-13T04:28:44;6.80;97.90
54006;DHT22;39919;38.160;-122.260;2022-12-13T04:31:12;6.70;98.20
54006;DHT22;39919;38.160;-122.260;2022-12-13T04:33:41;6.70;98.30
54006;DHT22;39919;38.160;-122.260;2022-12-13T04:36:09;6.60;98.10
54006;DHT22;39919;38.160;-122.260;2022-12-13T04:38:45;6.60;98.30
54006;DHT22;39919;38.160;-122.260;2022-12-13T04:41:13;6.50;98.60
54006;DHT22;39919;38.160;-122.260;2022-12-13T04:43:57;6.50;98.80
54006;DHT22;39919;38.160;-122.260;2022-12-13T04:46:25;6.50;99.00
54006;DHT22;39919;38.160;-122.260;2022-12-13T04:48:53;6.40;98.90
54006;DHT22;39919;38.160;-122.260;2022-12-13T04:51:21;6.30;98.90
54006;DHT22;39919;38.160;-122.260;2022-12-13T04:53:50;6.40;99.30
54006;DHT22;39919;38.160;-122.260;2022-12-13T04:56:18;6.30;99.50
54006;DHT22;39919;38.160;-122.260;2022-12-13T04:58:47;6.00;99.00
54006;DHT22;39919;38.160;-122.260;2022-12-13T05:01:17;6.20;99.00
54006;DHT22;39919;38.160;-122.260;2022-12-13T05:03:45;6.20;99.00
54006;DHT22;39919;38.160;-122.260;2022-12-13T05:06:13;6.20;99.50
54006;DHT22;39919;38.160;-122.260;2022-12-13T05:08:41;6.20;99.50
54006;DHT22;39919;38.160;-122.260;2022-12-13T05:11:10;6.10;99.40
54006;DHT22;39919;38.160;-122.260;2022-12-13T05:13:38;6.10;99.40
54006;DHT22;39919;38.160;-122.260;2022-12-13T05:16:06;6.00;99.30
54006;DHT22;39919;38.160;-122.260;2022-12-13T05:18:37;6.00;99.10
54006;DHT22;39919;38.160;-122.260;2022-12-13T05:21:06;6.00;99.30
54006;DHT22;39919;38.160;-122.260;2022-12-13T05:23:35;5.90;99.30
54006;DHT22;39919;38.160;-122.260;2022-12-13T05:26:04;5.90;99.60
54006;DHT22;39919;38.160;-122.260;2022-12-13T05:28:32;5.90;99.60
54006;DHT22;39919;38.160;-122.260;2022-12-13T05:31:04;5.90;99.80
54006;DHT22;39919;38.160;-122.260;2022-12-13T05:33:33;5.90;99.80
54006;DHT22;39919;38.160;-122.260;2022-12-13T05:36:03;5.80;99.70
54006;DHT22;39919;38.160;-122.260;2022-12-13T05:38:32;5.80;99.80
54006;DHT22;39919;38.160;-122.260;2022-12-13T05:41:00;5.70;99.80
54006;DHT22;39919;38.160;-122.260;2022-12-13T07:37:01;4.40;99.90
54006;DHT22;39919;38.160;-122.260;2022-12-13T07:39:29;4.40;99.90
54006;DHT22;39919;38.160;-122.260;2022-12-13T07:41:58;4.30;99.90
54006;DHT22;39919;38.160;-122.260;2022-12-13T07:44:26;4.30;99.90
54006;DHT22;39919;38.160;-122.260;2022-12-13T07:46:54;4.30;99.90
54006;DHT22;39919;38.160;-122.260;2022-12-13T07:49:23;4.20;99.90
54006;DHT22;39919;38.160;-122.260;2022-12-13T07:51:51;4.20;99.90
54006;DHT22;39919;38.160;-122.260;2022-12-13T07:54:23;4.20;99.90
54006;DHT22;39919;38.160;-122.260;2022-12-13T07:56:51;4.10;99.90
54006;DHT22;39919;38.160;-122.260;2022-12-13T07:59:19;4.10;99.90
54006;DHT22;39919;38.160;-122.260;2022-12-13T08:01:48;4.10;99.90
54006;DHT22;39919;38.160;-122.260;2022-12-13T08:04:16;4.10;99.90
54006;DHT22;39919;38.160;-122.260;2022-12-13T08:06:45;4.00;99.90
54006;DHT22;39919;38.160;-122.260;2022-12-13T08:09:13;4.00;99.90
54006;DHT22;39919;38.160;-122.260;2022-12-13T08:11:43;4.00;99.90
54006;DHT22;39919;38.160;-122.260;2022-12-13T08:14:11;4.00;99.90
54006;DHT22;39919;38.160;-122.260;2022-12-13T08:16:39;3.90;99.90
54006;DHT22;39919;38.160;-122.260;2022-12-13T08:19:08;3.90;99.90
54006;DHT22;39919;38.160;-122.260;2022-12-13T08:21:37;3.80;99.90
54006;DHT22;39919;38.160;-122.260;2022-12-13T08:24:06;3.80;99.90
54006;DHT22;39919;38.160;-122.260;2022-12-13T08:26:34;3.80;99.90
54006;DHT22;39919;38.160;-122.260;2022-12-13T08:29:04;3.70;99.90
54006;DHT22;39919;38.160;-122.260;2022-12-13T08:31:32;3.80;99.90
54006;DHT22;39919;38.160;-122.260;2022-12-13T08:34:01;3.70;99.90
54006;DHT22;39919;38.160;-122.260;2022-12-13T08:36:29;3.70;99.90
54006;DHT22;39919;38.160;-122.260;2022-12-13T08:38:57;3.70;99.90
54006;DHT22;39919;38.160;-122.260;2022-12-13T08:41:27;3.70;99.90
54006;DHT22;39919;38.160;-122.260;2022-12-13T08:43:56;3.60;99.90
54006;DHT22;39919;38.160;-122.260;2022-12-13T08:46:26;3.60;99.90
54006;DHT22;39919;38.160;-122.260;2022-12-13T08:48:55;3.50;99.90
54006;DHT22;39919;38.160;-122.260;2022-12-13T08:51:23;3.50;99.90
54006;DHT22;39919;38.160;-122.260;2022-12-13T08:53:51;3.50;99.90
54006;DHT22;39919;38.160;-122.260;2022-12-13T08:56:20;3.50;99.90
54006;DHT22;39919;38.160;-122.260;2022-12-13T08:58:48;3.50;99.90
54006;DHT22;39919;38.160;-122.260;2022-12-13T09:01:17;3.40;99.90
54006;DHT22;39919;38.160;-122.260;2022-12-13T09:03:47;3.40;99.90
54006;DHT22;39919;38.160;-122.260;2022-12-13T09:06:15;3.40;99.90
54006;DHT22;39919;38.160;-122.260;2022-12-13T09:08:44;3.30;99.90
54006;DHT22;39919;38.160;-122.260;2022-12-13T09:11:12;3.30;99.90
54006;DHT22;39919;38.160;-122.260;2022-12-13T09:13:40;3.30;99.90
54006;DHT22;39919;38.160;-122.260;2022-12-13T09:16:10;3.30;99.90
54006;DHT22;39919;38.160;-122.260;2022-12-13T09:18:40;3.30;99.90
54006;DHT22;39919;38.160;-122.260;2022-12-13T09:21:11;3.30;99.90
54006;DHT22;39919;38.160;-122.260;2022-12-13T09:23:40;3.20;99.90
54006;DHT22;39919;38.160;-122.260;2022-12-13T09:28:55;3.20;99.90
54006;DHT22;39919;38.160;-122.260;2022-12-13T09:31:23;3.20;99.90
54006;DHT22;39919;38.160;-122.260;2022-12-13T09:33:51;3.20;99.90
54006;DHT22;39919;38.160;-122.260;2022-12-13T09:36:21;3.10;99.90
54006;DHT22;39919;38.160;-122.260;2022-12-13T09:38:50;3.10;99.90
54006;DHT22;39919;38.160;-122.260;2022-12-13T09:41:19;3.10;99.90
54006;DHT22;39919;38.160;-122.260;2022-12-13T09:43:48;3.10;99.90
54006;DHT22;39919;38.160;-122.260;2022-12-13T09:46:22;3.10;99.90
54006;DHT22;39919;38.160;-122.260;2022-12-13T09:48:53;3.00;99.90
54006;DHT22;39919;38.160;-122.260;2022-12-13T09:51:26;3.00;99.90
54006;DHT22;39919;38.160;-122.260;2022-12-13T09:53:54;3.10;99.90
54006;DHT22;39919;38.160;-122.260;2022-12-13T09:56:23;3.00;99.90
54006;DHT22;39919;38.160;-122.260;2022-12-13T09:58:52;3.00;99.90
54006;DHT22;39919;38.160;-122.260;2022-12-13T10:01:21;3.00;99.90
54006;DHT22;39919;38.160;-122.260;2022-12-13T10:03:51;2.90;99.90
54006;DHT22;39919;38.160;-122.260;2022-12-13T10:06:20;2.90;99.90
54006;DHT22;39919;38.160;-122.260;2022-12-13T10:08:50;2.90;99.90
54006;DHT22;39919;38.160;-122.260;2022-12-13T10:11:20;2.90;99.90
54006;DHT22;39919;38.160;-122.260;2022-12-13T10:13:51;2.90;99.90
54006;DHT22;39919;38.160;-122.260;2022-12-13T10:16:23;2.80;99.90
54006;DHT22;39919;38.160;-122.260;2022-12-13T10:18:55;2.80;99.90
54006;DHT22;39919;38.160;-122.260;2022-12-13T10:21:24;2.80;99.90
54006;DHT22;39919;38.160;-122.260;2022-12-13T10:23:54;2.80;99.90
54006;DHT22;39919;38.160;-122.260;2022-12-13T10:26:22;2.80;99.90
54006;DHT22;39919;38.160;-122.260;2022-12-13T10:28:59;2.70;99.90
54006;DHT22;39919;38.160;-122.260;2022-12-13T10:31:28;2.70;99.90
54006;DHT22;39919;38.160;-122.260;2022-12-13T10:33:56;2.70;99.90
54006;DHT22;39919;38.160;-122.260;2022-12-13T10:36:32;2.70;99.90
54006;DHT22;39919;38.160;-122.260;2022-12-13T10:39:02;2.70;99.90
54006;DHT22;39919;38.160;-122.260;2022-12-13T10:41:32;2.60;99.90
54006;DHT22;39919;38.160;-122.260;2022-12-13T10:44:08;2.60;99.90
54006;DHT22;39919;38.160;-122.260;2022-12-13T10:46:36;2.60;99.90
54006;DHT22;39919;38.160;-122.260;2022-12-13T10:49:11;2.50;99.90
54006;DHT22;39919;38.160;-122.260;2022-12-13T10:51:41;2.50;99.90
54006;DHT22;39919;38.160;-122.260;2022-12-13T10:54:12;2.50;99.90
54006;DHT22;39919;38.160;-122.260;2022-12-13T10:56:43;2.50;99.90
54006;DHT22;39919;38.160;-122.260;2022-12-13T10:59:21;2.50;99.90
54006;DHT22;39919;38.160;-122.260;2022-12-13T11:01:51;2.50;99.90
54006;DHT22;39919;38.160;-122.260;2022-12-13T11:04:20;2.50;99.90
54006;DHT22;39919;38.160;-122.260;2022-12-13T11:06:49;2.50;99.90
54006;DHT22;39919;38.160;-122.260;2022-12-13T11:09:24;2.50;99.90
54006;DHT22;39919;38.160;-122.260;2022-12-13T11:11:53;2.40;99.90
54006;DHT22;39919;38.160;-122.260;2022-12-13T11:14:23;2.40;99.90
54006;DHT22;39919;38.160;-122.260;2022-12-13T11:16:52;2.40;99.90
54006;DHT22;39919;38.160;-122.260;2022-12-13T11:19:23;2.40;99.90
54006;DHT22;39919;38.160;-122.260;2022-12-13T11:21:52;2.40;99.90
54006;DHT22;39919;38.160;-122.260;2022-12-13T11:24:21;2.40;99.90
54006;DHT22;39919;38.160;-122.260;2022-12-13T11:26:55;2.40;99.90
54006;DHT22;39919;38.160;-122.260;2022-12-13T11:29:27;2.40;99.90
54006;DHT22;39919;38.160;-122.260;2022-12-13T11:32:02;2.30;99.90
54006;DHT22;39919;38.160;-122.260;2022-12-13T11:34:34;2.30;99.90
54006;DHT22;39919;38.160;-122.260;2022-12-13T11:37:06;2.30;99.90
54006;DHT22;39919;38.160;-122.260;2022-12-13T11:39:38;2.30;99.90
54006;DHT22;39919;38.160;-122.260;2022-12-13T11:42:12;2.30;99.90
54006;DHT22;39919;38.160;-122.260;2022-12-13T11:44:43;2.30;99.90
54006;DHT22;39919;38.160;-122.260;2022-12-13T11:47:14;2.30;99.90
54006;DHT22;39919;38.160;-122.260;2022-12-13T11:49:44;2.30;99.90
54006;DHT22;39919;38.160;-122.260;2022-12-13T11:52:14;2.30;99.90
54006;DHT22;39919;38.160;-122.260;2022-12-13T11:54:46;2.30;99.90
54006;DHT22;39919;38.160;-122.260;2022-12-13T11:57:21;2.30;99.90
54006;DHT22;39919;38.160;-122.260;2022-12-13T11:59:54;2.30;99.90
54006;DHT22;39919;38.160;-122.260;2022-12-13T12:02:25;2.20;99.90
54006;DHT22;39919;38.160;-122.260;2022-12-13T12:04:56;2.20;99.90
54006;DHT22;39919;38.160;-122.260;2022-12-13T12:07:26;2.20;99.90
54006;DHT22;39919;38.160;-122.260;2022-12-13T12:09:57;2.20;99.90
54006;DHT22;39919;38.160;-122.260;2022-12-13T12:12:29;2.20;99.90
54006;DHT22;39919;38.160;-122.260;2022-12-13T12:14:59;2.20;99.90
54006;DHT22;39919;38.160;-122.260;2022-12-13T12:17:29;2.20;99.90
54006;DHT22;39919;38.160;-122.260;2022-12-13T12:19:57;2.10;99.90
54006;DHT22;39919;38.160;-122.260;2022-12-13T12:22:29;2.10;99.90
54006;DHT22;39919;38.160;-122.260;2022-12-13T12:25:04;2.10;99.90
54006;DHT22;39919;38.160;-122.260;2022-12-13T12:27:37;2.10;99.90
54006;DHT22;39919;38.160;-122.260;2022-12-13T12:30:11;2.10;99.90
54006;DHT22;39919;38.160;-122.260;2022-12-13T12:32:41;2.10;99.90
54006;DHT22;39919;38.160;-122.260;2022-12-13T12:35:15;2.00;99.90
54006;DHT22;39919;38.160;-122.260;2022-12-13T12:37:47;2.00;99.90
54006;DHT22;39919;38.160;-122.260;2022-12-13T12:40:28;2.00;99.90
54006;DHT22;39919;38.160;-122.260;2022-12-13T12:43:03;2.00;99.90
54006;DHT22;39919;38.160;-122.260;2022-12-13T12:45:39;2.00;99.90
54006;DHT22;39919;38.160;-122.260;2022-12-13T12:48:13;2.00;99.90
54006;DHT22;39919;38.160;-122.260;2022-12-13T12:50:47;1.90;99.90
54006;DHT22;39919;38.160;-122.260;2022-12-13T12:53:23;1.90;99.90
54006;DHT22;39919;38.160;-122.260;2022-12-13T12:55:56;1.90;99.90
54006;DHT22;39919;38.160;-122.260;2022-12-13T12:58:29;1.90;99.90
54006;DHT22;39919;38.160;-122.260;2022-12-13T13:01:06;1.80;99.90
54006;DHT22;39919;38.160;-122.260;2022-12-13T13:03:37;1.80;99.90
54006;DHT22;39919;38.160;-122.260;2022-12-13T13:06:08;1.80;99.90
54006;DHT22;39919;38.160;-122.260;2022-12-13T13:08:39;1.80;99.90
54006;DHT22;39919;38.160;-122.260;2022-12-13T13:11:09;1.80;99.90
54006;DHT22;39919;38.160;-122.260;2022-12-13T13:13:44;1.80;99.90
54006;DHT22;39919;38.160;-122.260;2022-12-13T13:16:29;1.80;99.90
54006;DHT22;39919;38.160;-122.260;2022-12-13T13:18:57;1.80;99.90
54006;DHT22;39919;38.160;-122.260;2022-12-13T13:21:30;1.70;99.90
54006;DHT22;39919;38.160;-122.260;2022-12-13T13:24:06;1.70;99.90
54006;DHT22;39919;38.160;-122.260;2022-12-13T13:26:40;1.70;99.90
54006;DHT22;39919;38.160;-122.260;2022-12-13T13:32:25;1.70;99.90
54006;DHT22;39919;38.160;-122.260;2022-12-13T13:34:59;1.60;99.90
54006;DHT22;39919;38.160;-122.260;2022-12-13T13:37:46;1.60;99.90
54006;DHT22;39919;38.160;-122.260;2022-12-13T13:40:31;1.60;99.90
54006;DHT22;39919;38.160;-122.260;2022-12-13T13:43:11;1.60;99.90
54006;DHT22;39919;38.160;-122.260;2022-12-13T13:45:54;1.60;99.90
54006;DHT22;39919;38.160;-122.260;2022-12-13T13:48:31;1.50;99.90
54006;DHT22;39919;38.160;-122.260;2022-12-13T13:51:13;1.50;99.90
54006;DHT22;39919;38.160;-122.260;2022-12-13T13:56:34;1.50;99.90
54006;DHT22;39919;38.160;-122.260;2022-12-13T14:02:24;1.50;99.90
54006;DHT22;39919;38.160;-122.260;2022-12-13T14:07:55;1.50;99.90
54006;DHT22;39919;38.160;-122.260;2022-12-13T14:10:33;1.40;99.90
54006;DHT22;39919;38.160;-122.260;2022-12-13T14:18:42;1.40;99.90
54006;DHT22;39919;38.160;-122.260;2022-12-13T14:21:25;1.40;99.90
54006;DHT22;39919;38.160;-122.260;2022-12-13T14:24:01;1.40;99.90
54006;DHT22;39919;38.160;-122.260;2022-12-13T14:26:36;1.40;99.90
54006;DHT22;39919;38.160;-122.260;2022-12-13T14:29:09;1.30;99.90
54006;DHT22;39919;38.160;-122.260;2022-12-13T14:31:38;1.30;99.90
54006;DHT22;39919;38.160;-122.260;2022-12-13T14:34:14;1.30;99.90
54006;DHT22;39919;38.160;-122.260;2022-12-13T14:36:48;1.30;99.90
54006;DHT22;39919;38.160;-122.260;2022-12-13T14:39:22;1.30;99.90
54006;DHT22;39919;38.160;-122.260;2022-12-13T14:41:51;1.30;99.90
54006;DHT22;39919;38.160;-122.260;2022-12-13T14:44:20;1.30;99.90
54006;DHT22;39919;38.160;-122.260;2022-12-13T14:46:50;1.30;99.90
54006;DHT22;39919;38.160;-122.260;2022-12-13T14:49:19;1.30;99.90
54006;DHT22;39919;38.160;-122.260;2022-12-13T14:51:48;1.30;99.90
54006;DHT22;39919;38.160;-122.260;2022-12-13T14:54:20;1.30;99.90
54006;DHT22;39919;38.160;-122.260;2022-12-13T14:56:58;1.30;99.90
54006;DHT22;39919;38.160;-122.260;2022-12-13T14:59:27;1.30;99.90
54006;DHT22;39919;38.160;-122.260;2022-12-13T15:01:56;1.30;99.90
54006;DHT22;39919;38.160;-122.260;2022-12-13T15:04:26;1.30;99.90
54006;DHT22;39919;38.160;-122.260;2022-12-13T15:06:56;1.30;99.90
54006;DHT22;39919;38.160;-122.260;2022-12-13T15:09:30;1.30;99.90
54006;DHT22;39919;38.160;-122.260;2022-12-13T15:12:03;1.30;99.90
54006;DHT22;39919;38.160;-122.260;2022-12-13T15:14:35;1.30;99.90
54006;DHT22;39919;38.160;-122.260;2022-12-13T15:17:04;1.30;99.90
54006;DHT22;39919;38.160;-122.260;2022-12-13T15:19:40;1.30;99.90
54006;DHT22;39919;38.160;-122.260;2022-12-13T15:22:11;1.30;99.90
54006;DHT22;39919;38.160;-122.260;2022-12-13T15:24:40;1.30;99.90
54006;DHT22;39919;38.160;-122.260;2022-12-13T15:27:13;1.30;99.90
54006;DHT22;39919;38.160;-122.260;2022-12-13T15:29:42;1.30;99.90
54006;DHT22;39919;38.160;-122.260;2022-12-13T15:32:12;1.30;99.90
54006;DHT22;39919;38.160;-122.260;2022-12-13T15:34:44;1.30;99.90
54006;DHT22;39919;38.160;-122.260;2022-12-13T15:40:11;1.30;99.90
54006;DHT22;39919;38.160;-122.260;2022-12-13T15:42:44;1.30;99.90
54006;DHT22;39919;38.160;-122.260;2022-12-13T15:45:16;1.30;99.90
54006;DHT22;39919;38.160;-122.260;2022-12-13T15:47:45;1.30;99.90
54006;DHT22;39919;38.160;-122.260;2022-12-13T15:50:28;1.30;99.90
54006;DHT22;39919;38.160;-122.260;2022-12-13T15:52:58;1.40;99.90
54006;DHT22;39919;38.160;-122.260;2022-12-13T15:55:31;1.30;99.90
54006;DHT22;39919;38.160;-122.260;2022-12-13T15:58:16;1.40;99.90
54006;DHT22;39919;38.160;-122.260;2022-12-13T16:00:50;1.40;99.90
54006;DHT22;39919;38.160;-122.260;2022-12-13T16:03:19;1.50;99.90
54006;DHT22;39919;38.160;-122.260;2022-12-13T16:05:49;1.50;99.90
54006;DHT22;39919;38.160;-122.260;2022-12-13T16:08:22;1.60;99.90
54006;DHT22;39919;38.160;-122.260;2022-12-13T16:10:52;1.60;99.90
54006;DHT22;39919;38.160;-122.260;2022-12-13T16:13:23;1.70;99.90
54006;DHT22;39919;38.160;-122.260;2022-12-13T16:15:53;1.70;99.90
54006;DHT22;39919;38.160;-122.260;2022-12-13T16:18:22;1.80;99.90
54006;DHT22;39919;38.160;-122.260;2022-12-13T16:20:52;1.90;99.90
54006;DHT22;39919;38.160;-122.260;2022-12-13T16:23:20;1.90;99.90
54006;DHT22;39919;38.160;-122.260;2022-12-13T16:25:49;2.00;99.90
54006;DHT22;39919;38.160;-122.260;2022-12-13T16:28:17;2.00;99.90
54006;DHT22;39919;38.160;-122.260;2022-12-13T16:30:59;2.10;99.90
54006;DHT22;39919;38.160;-122.260;2022-12-13T16:33:29;2.20;99.90
54006;DHT22;39919;38.160;-122.260;2022-12-13T16:35:57;2.30;99.90
54006;DHT22;39919;38.160;-122.260;2022-12-13T16:38:27;2.30;99.90
54006;DHT22;39919;38.160;-122.260;2022-12-13T16:40:58;2.40;99.90
54006;DHT22;39919;38.160;-122.260;2022-12-13T16:43:26;2.50;99.90
54006;DHT22;39919;38.160;-122.260;2022-12-13T16:45:55;2.60;99.90
54006;DHT22;39919;38.160;-122.260;2022-12-13T16:48:25;2.70;99.90
54006;DHT22;39919;38.160;-122.260;2022-12-13T16:50:53;2.80;99.90
54006;DHT22;39919;38.160;-122.260;2022-12-13T16:53:22;2.90;99.90
54006;DHT22;39919;38.160;-122.260;2022-12-13T16:55:50;3.00;99.90
54006;DHT22;39919;38.160;-122.260;2022-12-13T16:58:19;3.10;99.90
54006;DHT22;39919;38.160;-122.260;2022-12-13T17:00:48;3.20;99.90
54006;DHT22;39919;38.160;-122.260;2022-12-13T17:03:17;3.20;99.90
54006;DHT22;39919;38.160;-122.260;2022-12-13T17:05:47;3.40;99.90
54006;DHT22;39919;38.160;-122.260;2022-12-13T17:08:15;3.50;99.90
54006;DHT22;39919;38.160;-122.260;2022-12-13T17:10:43;3.60;99.90
54006;DHT22;39919;38.160;-122.260;2022-12-13T17:13:12;3.70;99.90
54006;DHT22;39919;38.160;-122.260;2022-12-13T17:15:40;3.80;99.90
54006;DHT22;39919;38.160;-122.260;2022-12-13T17:18:08;3.90;99.90
54006;DHT22;39919;38.160;-122.260;2022-12-13T17:20:37;4.00;99.90
54006;DHT22;39919;38.160;-122.260;2022-12-13T17:23:08;4.10;99.90
54006;DHT22;39919;38.160;-122.260;2022-12-13T17:25:36;4.30;99.90
54006;DHT22;39919;38.160;-122.260;2022-12-13T17:28:05;4.40;99.90
54006;DHT22;39919;38.160;-122.260;2022-12-13T17:30:33;4.50;99.90
54006;DHT22;39919;38.160;-122.260;2022-12-13T17:33:02;4.60;99.90
54006;DHT22;39919;38.160;-122.260;2022-12-13T17:35:32;4.80;99.90
54006;DHT22;39919;38.160;-122.260;2022-12-13T17:38:01;5.00;99.90
54006;DHT22;39919;38.160;-122.260;2022-12-13T17:40:31;5.50;99.90
54006;DHT22;39919;38.160;-122.260;2022-12-13T17:43:01;6.40;99.90
54006;DHT22;39919;38.160;-122.260;2022-12-13T17:45:29;7.60;99.90
54006;DHT22;39919;38.160;-122.260;2022-12-13T17:47:57;9.00;99.90
54006;DHT22;39919;38.160;-122.260;2022-12-13T17:52:54;11.70;99.90
54006;DHT22;39919;38.160;-122.260;2022-12-13T17:55:22;13.00;99.90
54006;DHT22;39919;38.160;-122.260;2022-12-13T17:57:53;14.30;99.90
54006;DHT22;39919;38.160;-122.260;2022-12-13T18:00:21;15.60;99.90
54006;DHT22;39919;38.160;-122.260;2022-12-13T18:02:52;16.90;99.90
54006;DHT22;39919;38.160;-122.260;2022-12-13T18:05:20;18.20;95.00
54006;DHT22;39919;38.160;-122.260;2022-12-13T18:07:50;19.30;78.80
54006;DHT22;39919;38.160;-122.260;2022-12-13T18:10:18;20.30;74.80
54006;DHT22;39919;38.160;-122.260;2022-12-13T18:12:46;21.40;71.10
54006;DHT22;39919;38.160;-122.260;2022-12-13T18:15:16;22.20;62.30
54006;DHT22;39919;38.160;-122.260;2022-12-13T18:17:44;23.00;56.90
54006;DHT22;39919;38.160;-122.260;2022-12-13T18:20:15;23.70;56.40
54006;DHT22;39919;38.160;-122.260;2022-12-13T18:22:43;24.30;50.40
54006;DHT22;39919;38.160;-122.260;2022-12-13T18:25:11;24.90;53.50
54006;DHT22;39919;38.160;-122.260;2022-12-13T18:27:40;25.40;50.60
54006;DHT22;39919;38.160;-122.260;2022-12-13T18:30:08;25.90;48.80
54006;DHT22;39919;38.160;-122.260;2022-12-13T18:32:40;26.40;48.10
54006;DHT22;39919;38.160;-122.260;2022-12-13T18:35:08;26.80;44.00
54006;DHT22;39919;38.160;-122.260;2022-12-13T18:37:37;27.20;44.10
54006;DHT22;39919;38.160;-122.260;2022-12-13T18:40:05;27.50;43.50
54006;DHT22;39919;38.160;-122.260;2022-12-13T18:42:34;27.80;40.50
54006;DHT22;39919;38.160;-122.260;2022-12-13T18:45:02;28.00;42.30
54006;DHT22;39919;38.160;-122.260;2022-12-13T18:47:30;28.10;42.50
54006;DHT22;39919;38.160;-122.260;2022-12-13T18:50:00;28.30;40.80
54006;DHT22;39919;38.160;-122.260;2022-12-13T18:52:29;28.40;39.40
54006;DHT22;39919;38.160;-122.260;2022-12-13T18:54:57;28.50;41.40
54006;DHT22;39919;38.160;-122.260;2022-12-13T18:57:25;28.60;39.70
54006;DHT22;39919;38.160;-122.260;2022-12-13T18:59:54;28.60;40.20
54006;DHT22;39919;38.160;-122.260;2022-12-13T19:02:22;28.70;40.80
54006;DHT22;39919;38.160;-122.260;2022-12-13T19:04:50;28.90;41.30
54006;DHT22;39919;38.160;-122.260;2022-12-13T19:07:20;29.00;39.00
54006;DHT22;39919;38.160;-122.260;2022-12-13T19:09:48;29.00;38.60
54006;DHT22;39919;38.160;-122.260;2022-12-13T19:12:17;29.10;37.20
54006;DHT22;39919;38.160;-122.260;2022-12-13T19:14:45;29.10;37.40